GLO2015 SBCT-SBGL
Flight info
| Callsign | GLO2015 |
|---|---|
| Flight time | N/A |
| Altitude | 37000 |
| Route | EDVEB UM548 KOXAG UM540 ANISE DCT DORLU UZ42 VUREP |
| Aircraft | B38M/M-DFGHIJ4J7KLORWXY/LB1 |
Departure
| Time | 2026-05-08 13:51 |
|---|---|
| Airport | Curitiba-Afonso Pena International Airport (SBCT) |
Arrival
| Time | N/A |
|---|---|
| Airport | Rio Galeão – Tom Jobim International Airport (SBGL) |
| Time | Latitude | Longitude | Altitude | Speed | Heading |
|---|---|---|---|---|---|
| 2026-05-08 13:32 | -25.53739 | -49.17025 | 2998 ft | 0 kts | 226° |
| 2026-05-08 13:43 | -25.53725 | -49.17010 | 2998 ft | 4 kts | 226° |
| 2026-05-08 13:43 | -25.53709 | -49.16991 | 2998 ft | 4 kts | 235° |
| 2026-05-08 13:43 | -25.53704 | -49.16968 | 2998 ft | 4 kts | 294° |
| 2026-05-08 13:43 | -25.53717 | -49.16948 | 2998 ft | 1 kts | 315° |
| 2026-05-08 13:44 | -25.53721 | -49.16944 | 2998 ft | 0 kts | 315° |
| 2026-05-08 13:47 | -25.53715 | -49.16950 | 2998 ft | 3 kts | 315° |
| 2026-05-08 13:47 | -25.53678 | -49.16991 | 2998 ft | 12 kts | 315° |
| 2026-05-08 13:47 | -25.53626 | -49.16989 | 2998 ft | 8 kts | 36° |
| 2026-05-08 13:48 | -25.53611 | -49.16926 | 2998 ft | 9 kts | 85° |
| 2026-05-08 13:48 | -25.53611 | -49.16913 | 2998 ft | 0 kts | 90° |
| 2026-05-08 13:48 | -25.53611 | -49.16909 | 2998 ft | 2 kts | 90° |
| 2026-05-08 13:48 | -25.53611 | -49.16853 | 2997 ft | 12 kts | 90° |
| 2026-05-08 13:49 | -25.53610 | -49.16768 | 2997 ft | 5 kts | 72° |
| 2026-05-08 13:49 | -25.53589 | -49.16756 | 2997 ft | 4 kts | 1° |
| 2026-05-08 13:49 | -25.53570 | -49.16769 | 2997 ft | 0 kts | 315° |
| 2026-05-08 13:50 | -25.53545 | -49.16796 | 2996 ft | 27 kts | 315° |
| 2026-05-08 13:50 | -25.53220 | -49.17163 | 2999 ft | 104 kts | 314° |
| 2026-05-08 13:50 | -25.52564 | -49.17899 | 3003 ft | 165 kts | 314° |
| 2026-05-08 13:51 | -25.51748 | -49.18906 | 3481 ft | 182 kts | 309° |
| 2026-05-08 13:51 | -25.50991 | -49.20010 | 4485 ft | 176 kts | 298° |
| 2026-05-08 13:51 | -25.50421 | -49.21286 | 5128 ft | 195 kts | 296° |
| 2026-05-08 13:51 | -25.49777 | -49.22708 | 5667 ft | 220 kts | 298° |
| 2026-05-08 13:52 | -25.49036 | -49.24278 | 6346 ft | 237 kts | 301° |
| 2026-05-08 13:52 | -25.48228 | -49.25932 | 7142 ft | 248 kts | 301° |
| 2026-05-08 13:52 | -25.47127 | -49.27382 | 8134 ft | 249 kts | 324° |
| 2026-05-08 13:52 | -25.45505 | -49.28092 | 9083 ft | 259 kts | 348° |
| 2026-05-08 13:53 | -25.43667 | -49.27891 | 9974 ft | 277 kts | 13° |
| 2026-05-08 13:53 | -25.41877 | -49.26936 | 10655 ft | 295 kts | 20° |
| 2026-05-08 13:53 | -25.39988 | -49.25893 | 11166 ft | 312 kts | 20° |
| 2026-05-08 13:53 | -25.38033 | -49.24814 | 11744 ft | 324 kts | 21° |
| 2026-05-08 13:54 | -25.36002 | -49.23646 | 12377 ft | 336 kts | 28° |
| 2026-05-08 13:54 | -25.34266 | -49.21851 | 13149 ft | 351 kts | 49° |
| 2026-05-08 13:54 | -25.33199 | -49.19372 | 13890 ft | 365 kts | 72° |
| 2026-05-08 13:54 | -25.33020 | -49.16534 | 14614 ft | 375 kts | 89° |
| 2026-05-08 13:55 | -25.33076 | -49.13630 | 15251 ft | 380 kts | 86° |
| 2026-05-08 13:55 | -25.33089 | -49.10700 | 15940 ft | 382 kts | 86° |
| 2026-05-08 13:55 | -25.33090 | -49.04777 | 17231 ft | 388 kts | 86° |
| 2026-05-08 13:56 | -25.33087 | -49.01779 | 17835 ft | 391 kts | 86° |
| 2026-05-08 13:56 | -25.33081 | -48.98767 | 18430 ft | 394 kts | 86° |
| 2026-05-08 13:56 | -25.33075 | -48.95722 | 18990 ft | 397 kts | 86° |
| 2026-05-08 13:56 | -25.33068 | -48.92690 | 19489 ft | 402 kts | 86° |
| 2026-05-08 13:57 | -25.33061 | -48.89587 | 20002 ft | 405 kts | 86° |
| 2026-05-08 13:57 | -25.33053 | -48.86456 | 20474 ft | 410 kts | 86° |
| 2026-05-08 13:57 | -25.33045 | -48.83286 | 20926 ft | 414 kts | 86° |
| 2026-05-08 13:57 | -25.33035 | -48.80089 | 21373 ft | 417 kts | 86° |
| 2026-05-08 13:58 | -25.33023 | -48.76868 | 21834 ft | 421 kts | 86° |
| 2026-05-08 13:58 | -25.33011 | -48.73622 | 22289 ft | 424 kts | 86° |
| 2026-05-08 13:58 | -25.32999 | -48.70338 | 22729 ft | 428 kts | 86° |
| 2026-05-08 13:58 | -25.32985 | -48.67030 | 23158 ft | 432 kts | 86° |
| 2026-05-08 13:59 | -25.32971 | -48.63690 | 23580 ft | 436 kts | 86° |
| 2026-05-08 13:59 | -25.32956 | -48.60323 | 23997 ft | 440 kts | 86° |
| 2026-05-08 13:59 | -25.32939 | -48.56934 | 24432 ft | 443 kts | 86° |
| 2026-05-08 13:59 | -25.32922 | -48.53515 | 24844 ft | 447 kts | 86° |
| 2026-05-08 14:00 | -25.32903 | -48.50059 | 25254 ft | 451 kts | 86° |
| 2026-05-08 14:00 | -25.32883 | -48.46590 | 25690 ft | 453 kts | 86° |
| 2026-05-08 14:00 | -25.32862 | -48.43096 | 26077 ft | 456 kts | 86° |
| 2026-05-08 14:00 | -25.32840 | -48.39621 | 26457 ft | 460 kts | 86° |
| 2026-05-08 14:01 | -25.32818 | -48.36073 | 26836 ft | 463 kts | 86° |
| 2026-05-08 14:01 | -25.32793 | -48.32506 | 27199 ft | 466 kts | 86° |
| 2026-05-08 14:01 | -25.32768 | -48.28916 | 27573 ft | 468 kts | 86° |
| 2026-05-08 14:01 | -25.32742 | -48.25304 | 27928 ft | 471 kts | 86° |
| 2026-05-08 14:02 | -25.32715 | -48.21676 | 28266 ft | 474 kts | 86° |
| 2026-05-08 14:02 | -25.32687 | -48.18022 | 28633 ft | 476 kts | 86° |
| 2026-05-08 14:02 | -25.32658 | -48.14351 | 28964 ft | 479 kts | 86° |
| 2026-05-08 14:02 | -25.32628 | -48.10664 | 29287 ft | 481 kts | 86° |
| 2026-05-08 14:03 | -25.32596 | -48.06946 | 29613 ft | 484 kts | 86° |
| 2026-05-08 14:03 | -25.32564 | -48.03217 | 29932 ft | 486 kts | 86° |
| 2026-05-08 14:03 | -25.32530 | -47.99471 | 30226 ft | 489 kts | 85° |
| 2026-05-08 14:03 | -25.32158 | -47.95761 | 30538 ft | 484 kts | 73° |
| 2026-05-08 14:04 | -25.31470 | -47.92137 | 30836 ft | 487 kts | 75° |
| 2026-05-08 14:04 | -25.30827 | -47.88455 | 31095 ft | 490 kts | 75° |
| 2026-05-08 14:04 | -25.30168 | -47.84747 | 31356 ft | 493 kts | 75° |
| 2026-05-08 14:04 | -25.29502 | -47.81028 | 31609 ft | 495 kts | 75° |
| 2026-05-08 14:05 | -25.28829 | -47.77281 | 31872 ft | 498 kts | 75° |
| 2026-05-08 14:05 | -25.28154 | -47.73526 | 32138 ft | 500 kts | 75° |
| 2026-05-08 14:05 | -25.27474 | -47.69749 | 32391 ft | 502 kts | 75° |
| 2026-05-08 14:05 | -25.26791 | -47.65964 | 32681 ft | 503 kts | 75° |
| 2026-05-08 14:06 | -25.26113 | -47.62217 | 33012 ft | 503 kts | 75° |
| 2026-05-08 14:06 | -25.25428 | -47.58429 | 33351 ft | 503 kts | 75° |
| 2026-05-08 14:06 | -25.24741 | -47.54641 | 33695 ft | 503 kts | 75° |
| 2026-05-08 14:06 | -25.24053 | -47.50855 | 34028 ft | 502 kts | 75° |
| 2026-05-08 14:07 | -25.23366 | -47.47073 | 34358 ft | 502 kts | 75° |
| 2026-05-08 14:07 | -25.22677 | -47.43299 | 34697 ft | 501 kts | 75° |
| 2026-05-08 14:07 | -25.21990 | -47.39535 | 35045 ft | 500 kts | 75° |
| 2026-05-08 14:07 | -25.21302 | -47.35774 | 35353 ft | 499 kts | 76° |
| 2026-05-08 14:08 | -25.20614 | -47.32020 | 35665 ft | 498 kts | 75° |
| 2026-05-08 14:08 | -25.19927 | -47.28275 | 35962 ft | 497 kts | 76° |
| 2026-05-08 14:08 | -25.19472 | -47.25798 | 36161 ft | 496 kts | 76° |
| 2026-05-08 14:08 | -25.18787 | -47.22070 | 36422 ft | 496 kts | 76° |
| 2026-05-08 14:09 | -25.18100 | -47.18342 | 36648 ft | 496 kts | 76° |
| 2026-05-08 14:09 | -25.17413 | -47.14618 | 36916 ft | 494 kts | 76° |
| 2026-05-08 14:09 | -25.16729 | -47.10895 | 36959 ft | 493 kts | 76° |
| 2026-05-08 14:10 | -25.15310 | -47.03567 | 36941 ft | 485 kts | 69° |
| 2026-05-08 14:10 | -25.13962 | -47.00198 | 36944 ft | 476 kts | 53° |
| 2026-05-08 14:10 | -25.11978 | -46.97317 | 36943 ft | 467 kts | 39° |
| 2026-05-08 14:10 | -25.09481 | -46.95097 | 36958 ft | 458 kts | 28° |
| 2026-05-08 14:11 | -25.06808 | -46.93153 | 36948 ft | 460 kts | 27° |
| 2026-05-08 14:11 | -25.01370 | -46.89437 | 36953 ft | 459 kts | 26° |
| 2026-05-08 14:12 | -24.95891 | -46.85816 | 36960 ft | 459 kts | 25° |
| 2026-05-08 14:12 | -24.90396 | -46.82217 | 36962 ft | 459 kts | 25° |
| 2026-05-08 14:13 | -24.84900 | -46.78624 | 36958 ft | 459 kts | 25° |
| 2026-05-08 14:13 | -24.79434 | -46.75054 | 36935 ft | 460 kts | 25° |
| 2026-05-08 14:14 | -24.73889 | -46.71437 | 36934 ft | 460 kts | 26° |
| 2026-05-08 14:14 | -24.68404 | -46.67862 | 36934 ft | 461 kts | 26° |
| 2026-05-08 14:15 | -24.62881 | -46.64266 | 36934 ft | 462 kts | 26° |
| 2026-05-08 14:15 | -24.57799 | -46.59908 | 36965 ft | 469 kts | 39° |
| 2026-05-08 14:16 | -24.53057 | -46.54953 | 36976 ft | 472 kts | 40° |
| 2026-05-08 14:16 | -24.48325 | -46.49962 | 36973 ft | 471 kts | 40° |
| 2026-05-08 14:17 | -24.43582 | -46.44960 | 36963 ft | 472 kts | 40° |
| 2026-05-08 14:17 | -24.38840 | -46.39962 | 36963 ft | 473 kts | 40° |
| 2026-05-08 14:18 | -24.34125 | -46.34999 | 36954 ft | 472 kts | 40° |
| 2026-05-08 14:18 | -24.29378 | -46.30008 | 36954 ft | 473 kts | 40° |
| 2026-05-08 14:19 | -24.24627 | -46.25018 | 36939 ft | 473 kts | 40° |
| 2026-05-08 14:19 | -24.19867 | -46.20023 | 36928 ft | 473 kts | 40° |
| 2026-05-08 14:20 | -24.15109 | -46.15037 | 36927 ft | 474 kts | 40° |
| 2026-05-08 14:20 | -24.10345 | -46.10049 | 36927 ft | 474 kts | 40° |
| 2026-05-08 14:21 | -24.05574 | -46.05060 | 36918 ft | 474 kts | 40° |
| 2026-05-08 14:21 | -24.00801 | -46.00074 | 36924 ft | 474 kts | 40° |
| 2026-05-08 14:22 | -23.96034 | -45.95099 | 36935 ft | 474 kts | 40° |
| 2026-05-08 14:22 | -23.91258 | -45.90120 | 36935 ft | 474 kts | 40° |
| 2026-05-08 14:23 | -23.86480 | -45.85145 | 36962 ft | 474 kts | 40° |
| 2026-05-08 14:23 | -23.81700 | -45.80173 | 36973 ft | 474 kts | 40° |
| 2026-05-08 14:24 | -23.76914 | -45.75199 | 36989 ft | 475 kts | 40° |
| 2026-05-08 14:24 | -23.72127 | -45.70231 | 37010 ft | 475 kts | 40° |
| 2026-05-08 14:25 | -23.67337 | -45.65265 | 37012 ft | 475 kts | 40° |
| 2026-05-08 14:25 | -23.62541 | -45.60297 | 37028 ft | 476 kts | 40° |
| 2026-05-08 14:26 | -23.57735 | -45.55324 | 37038 ft | 476 kts | 40° |
| 2026-05-08 14:26 | -23.52919 | -45.50347 | 37043 ft | 477 kts | 40° |
| 2026-05-08 14:27 | -23.48128 | -45.45400 | 37052 ft | 477 kts | 40° |
| 2026-05-08 14:27 | -23.43309 | -45.40430 | 37051 ft | 477 kts | 40° |
| 2026-05-08 14:28 | -23.38500 | -45.35473 | 36719 ft | 474 kts | 40° |
| 2026-05-08 14:28 | -23.36211 | -45.32834 | 35563 ft | 488 kts | 52° |
| 2026-05-08 14:28 | -23.34541 | -45.29578 | 34539 ft | 497 kts | 70° |
| 2026-05-08 14:28 | -23.33614 | -45.25986 | 34080 ft | 490 kts | 75° |
| 2026-05-08 14:29 | -23.32782 | -45.22383 | 33243 ft | 493 kts | 76° |
| 2026-05-08 14:29 | -23.31966 | -45.18737 | 32367 ft | 497 kts | 76° |
| 2026-05-08 14:29 | -23.31172 | -45.15100 | 31791 ft | 492 kts | 76° |
| 2026-05-08 14:29 | -23.30391 | -45.11492 | 31304 ft | 486 kts | 76° |
| 2026-05-08 14:30 | -23.29622 | -45.07930 | 30754 ft | 481 kts | 76° |
| 2026-05-08 14:30 | -23.28859 | -45.04397 | 30157 ft | 478 kts | 76° |
| 2026-05-08 14:30 | -23.28101 | -45.00891 | 29571 ft | 475 kts | 76° |
| 2026-05-08 14:30 | -23.27347 | -44.97408 | 28999 ft | 471 kts | 76° |
| 2026-05-08 14:31 | -23.26598 | -44.93950 | 28421 ft | 468 kts | 76° |
| 2026-05-08 14:31 | -23.25854 | -44.90518 | 27857 ft | 464 kts | 76° |
| 2026-05-08 14:31 | -23.25115 | -44.87115 | 27291 ft | 461 kts | 76° |
| 2026-05-08 14:32 | -23.23657 | -44.80414 | 26181 ft | 455 kts | 76° |
| 2026-05-08 14:32 | -23.22931 | -44.77084 | 25620 ft | 451 kts | 76° |
| 2026-05-08 14:32 | -23.22210 | -44.73773 | 25071 ft | 449 kts | 76° |
| 2026-05-08 14:32 | -23.21489 | -44.70475 | 24527 ft | 446 kts | 76° |
| 2026-05-08 14:33 | -23.20776 | -44.67210 | 23997 ft | 442 kts | 76° |
| 2026-05-08 14:33 | -23.20067 | -44.63970 | 23489 ft | 439 kts | 76° |
| 2026-05-08 14:33 | -23.19363 | -44.60759 | 22926 ft | 436 kts | 76° |
| 2026-05-08 14:33 | -23.18662 | -44.57569 | 22428 ft | 432 kts | 76° |
| 2026-05-08 14:34 | -23.17806 | -44.54458 | 21852 ft | 428 kts | 64° |
| 2026-05-08 14:34 | -23.16510 | -44.51563 | 21384 ft | 423 kts | 63° |
| 2026-05-08 14:34 | -23.15252 | -44.48698 | 20937 ft | 418 kts | 63° |
| 2026-05-08 14:34 | -23.14002 | -44.45858 | 20469 ft | 414 kts | 63° |
| 2026-05-08 14:35 | -23.12767 | -44.43054 | 20001 ft | 410 kts | 63° |
| 2026-05-08 14:35 | -23.11539 | -44.40270 | 19543 ft | 406 kts | 63° |
| 2026-05-08 14:35 | -23.10324 | -44.37515 | 19092 ft | 402 kts | 62° |
| 2026-05-08 14:35 | -23.09118 | -44.34785 | 18650 ft | 398 kts | 62° |
| 2026-05-08 14:36 | -23.07927 | -44.32088 | 18214 ft | 395 kts | 62° |
| 2026-05-08 14:36 | -23.06741 | -44.29406 | 17784 ft | 391 kts | 62° |
| 2026-05-08 14:36 | -23.05572 | -44.26761 | 17351 ft | 387 kts | 62° |
| 2026-05-08 14:36 | -23.04424 | -44.24167 | 16930 ft | 384 kts | 62° |
| 2026-05-08 14:37 | -23.03272 | -44.21564 | 16502 ft | 381 kts | 62° |
| 2026-05-08 14:37 | -23.02126 | -44.18977 | 16085 ft | 378 kts | 62° |
| 2026-05-08 14:37 | -23.00989 | -44.16411 | 15677 ft | 375 kts | 62° |
| 2026-05-08 14:37 | -22.99862 | -44.13870 | 15260 ft | 372 kts | 62° |
| 2026-05-08 14:38 | -22.98744 | -44.11348 | 14845 ft | 369 kts | 62° |
| 2026-05-08 14:38 | -22.97633 | -44.08846 | 14429 ft | 366 kts | 62° |
| 2026-05-08 14:38 | -22.96530 | -44.06362 | 14025 ft | 363 kts | 62° |
| 2026-05-08 14:38 | -22.95436 | -44.03902 | 13619 ft | 360 kts | 61° |
| 2026-05-08 14:39 | -22.94352 | -44.01461 | 13199 ft | 358 kts | 61° |
| 2026-05-08 14:39 | -22.93274 | -43.99037 | 12819 ft | 355 kts | 61° |
| 2026-05-08 14:39 | -22.92201 | -43.96628 | 12351 ft | 354 kts | 62° |
| 2026-05-08 14:39 | -22.91136 | -43.94236 | 11945 ft | 351 kts | 62° |
| 2026-05-08 14:40 | -22.90080 | -43.91870 | 11569 ft | 346 kts | 61° |
| 2026-05-08 14:40 | -22.89038 | -43.89532 | 11189 ft | 342 kts | 61° |
| 2026-05-08 14:40 | -22.88006 | -43.87218 | 10889 ft | 337 kts | 61° |
| 2026-05-08 14:40 | -22.87000 | -43.84963 | 10741 ft | 328 kts | 61° |
| 2026-05-08 14:41 | -22.86016 | -43.82761 | 10566 ft | 320 kts | 61° |
| 2026-05-08 14:41 | -22.85068 | -43.80638 | 10431 ft | 312 kts | 61° |
| 2026-05-08 14:41 | -22.84134 | -43.78548 | 10270 ft | 304 kts | 60° |
| 2026-05-08 14:41 | -22.83226 | -43.76518 | 10131 ft | 295 kts | 60° |
| 2026-05-08 14:42 | -22.82337 | -43.74530 | 9866 ft | 292 kts | 60° |
| 2026-05-08 14:42 | -22.81452 | -43.72553 | 9554 ft | 291 kts | 60° |
| 2026-05-08 14:42 | -22.80764 | -43.70484 | 9208 ft | 294 kts | 72° |
| 2026-05-08 14:42 | -22.80284 | -43.68330 | 8886 ft | 293 kts | 72° |
| 2026-05-08 14:43 | -22.79798 | -43.66196 | 8569 ft | 292 kts | 72° |
| 2026-05-08 14:43 | -22.79472 | -43.64777 | 8361 ft | 291 kts | 72° |
| 2026-05-08 14:43 | -22.79150 | -43.63391 | 8171 ft | 290 kts | 72° |
| 2026-05-08 14:43 | -22.78794 | -43.61855 | 7925 ft | 289 kts | 72° |
| 2026-05-08 14:44 | -22.78308 | -43.59767 | 7595 ft | 288 kts | 72° |
| 2026-05-08 14:44 | -22.77725 | -43.57707 | 7269 ft | 282 kts | 58° |
| 2026-05-08 14:44 | -22.76457 | -43.56171 | 6979 ft | 272 kts | 31° |
| 2026-05-08 14:44 | -22.74758 | -43.55367 | 6710 ft | 265 kts | 11° |
| 2026-05-08 14:45 | -22.72975 | -43.54941 | 6459 ft | 262 kts | 17° |